createdAt,value
2023-02-13T00:00:34.262Z,97.30
2023-02-13T00:03:01.255Z,97.10
2023-02-13T00:05:28.260Z,97.10
2023-02-13T00:07:55.262Z,97.10
2023-02-13T00:10:22.230Z,96.80
2023-02-13T00:12:49.168Z,96.90
2023-02-13T00:15:16.128Z,96.80
2023-02-13T00:17:45.617Z,96.70
2023-02-13T00:20:13.301Z,96.50
2023-02-13T00:22:40.698Z,96.70
2023-02-13T00:25:08.537Z,96.70
2023-02-13T00:27:35.465Z,96.60
2023-02-13T00:30:03.663Z,96.60
2023-02-13T00:32:31.884Z,96.70
2023-02-13T00:34:59.008Z,96.80
2023-02-13T00:37:26.309Z,96.50
2023-02-13T00:39:53.759Z,96.60
2023-02-13T00:42:24.152Z,96.60
2023-02-13T00:44:51.355Z,96.80
2023-02-13T00:47:18.610Z,96.90
2023-02-13T00:49:48.695Z,96.80
2023-02-13T00:52:15.658Z,96.80
2023-02-13T00:54:42.758Z,96.70
2023-02-13T00:57:09.720Z,96.50
2023-02-13T00:59:36.667Z,96.40
2023-02-13T01:02:03.584Z,96.50
2023-02-13T01:04:30.530Z,96.40
2023-02-13T01:06:57.858Z,96.50
2023-02-13T01:09:25.596Z,96.20
2023-02-13T01:11:52.791Z,96.20
2023-02-13T01:14:19.821Z,96.50
2023-02-13T01:16:46.892Z,96.50
2023-02-13T01:19:13.851Z,96.50
2023-02-13T01:21:40.851Z,96.50
2023-02-13T01:24:07.896Z,96.50
2023-02-13T01:26:34.816Z,96.20
2023-02-13T01:29:01.935Z,96.00
2023-02-13T01:31:29.111Z,96.10
2023-02-13T01:33:58.277Z,96.40
2023-02-13T01:36:25.903Z,96.50
2023-02-13T01:38:55.215Z,96.60
2023-02-13T01:41:22.890Z,96.60
2023-02-13T01:43:51.887Z,96.60
2023-02-13T01:46:24.201Z,96.50
2023-02-13T01:48:54.010Z,96.60
2023-02-13T01:51:25.925Z,96.70
2023-02-13T01:54:06.048Z,96.60
2023-02-13T01:56:45.371Z,96.50
2023-02-13T01:59:26.979Z,96.70
2023-02-13T02:01:55.221Z,96.80
2023-02-13T02:04:38.063Z,96.70
2023-02-13T02:07:27.348Z,96.70
2023-02-13T02:09:59.262Z,97.00
2023-02-13T02:12:52.164Z,97.10
2023-02-13T02:15:19.847Z,96.80
2023-02-13T02:17:49.087Z,96.60
2023-02-13T02:20:31.088Z,96.60
2023-02-13T02:23:24.381Z,96.50
2023-02-13T02:26:25.421Z,96.70
2023-02-13T02:28:55.184Z,96.40
2023-02-13T02:31:58.856Z,96.70
2023-02-13T02:35:02.144Z,96.70
2023-02-13T02:38:08.191Z,96.60
2023-02-13T02:40:57.141Z,96.60
2023-02-13T02:43:40.882Z,96.70
2023-02-13T02:46:25.389Z,96.50
2023-02-13T02:49:32.948Z,96.60
2023-02-13T02:52:08.819Z,96.40
2023-02-13T02:55:08.254Z,96.70
2023-02-13T02:58:04.373Z,96.70
2023-02-13T03:00:53.405Z,96.60
2023-02-13T03:03:43.656Z,96.60
2023-02-13T03:06:26.844Z,96.60
2023-02-13T03:09:20.796Z,96.50
2023-02-13T03:12:09.655Z,96.50
2023-02-13T03:14:37.500Z,96.60
2023-02-13T03:17:24.653Z,96.50
2023-02-13T03:20:29.385Z,96.60
2023-02-13T03:23:23.165Z,96.50
2023-02-13T03:26:45.646Z,96.60
2023-02-13T03:29:43.117Z,96.30
2023-02-13T03:32:28.158Z,96.60
2023-02-13T03:35:38.603Z,96.70
2023-02-13T03:38:50.771Z,96.60
2023-02-13T03:41:41.833Z,96.80
2023-02-13T03:44:14.417Z,97.00
2023-02-13T03:46:45.991Z,97.10
2023-02-13T03:49:55.900Z,97.20
2023-02-13T03:52:33.940Z,97.20
2023-02-13T03:55:25.406Z,97.10
2023-02-13T03:58:15.829Z,97.10
2023-02-13T04:00:48.445Z,96.80
2023-02-13T04:03:38.326Z,97.00
2023-02-13T04:06:14.437Z,97.00
2023-02-13T04:08:41.966Z,96.70
2023-02-13T04:11:19.086Z,96.80
2023-02-13T04:13:52.845Z,96.80
2023-02-13T04:16:35.280Z,96.60
2023-02-13T04:19:02.922Z,96.30
2023-02-13T04:21:37.320Z,96.40
2023-02-13T04:24:04.643Z,96.50
2023-02-13T04:26:42.960Z,96.40
2023-02-13T04:29:10.044Z,96.30
2023-02-13T04:31:37.025Z,96.60
2023-02-13T04:34:04.200Z,96.40
2023-02-13T04:36:31.204Z,96.30
2023-02-13T04:38:58.375Z,96.50
2023-02-13T04:41:25.406Z,96.40
2023-02-13T04:43:52.649Z,96.40
2023-02-13T04:46:19.652Z,96.50
2023-02-13T04:48:46.628Z,96.50
2023-02-13T04:51:13.564Z,96.50
2023-02-13T04:53:40.534Z,96.80
2023-02-13T04:56:07.885Z,96.20
2023-02-13T04:58:34.927Z,96.20
2023-02-13T05:01:02.091Z,96.20
2023-02-13T05:03:29.127Z,96.50
2023-02-13T05:05:56.126Z,96.80
2023-02-13T05:08:23.085Z,96.70
2023-02-13T05:10:50.168Z,96.70
2023-02-13T05:13:17.173Z,96.60
2023-02-13T05:15:44.182Z,96.40
2023-02-13T05:18:11.210Z,96.50
2023-02-13T05:20:38.128Z,96.60
2023-02-13T05:23:23.238Z,96.50
2023-02-13T05:25:54.126Z,96.40
2023-02-13T05:28:39.791Z,96.00
2023-02-13T05:31:07.001Z,96.50
2023-02-13T05:33:34.087Z,96.20
2023-02-13T05:36:01.008Z,95.90
2023-02-13T05:38:27.833Z,96.10
2023-02-13T05:40:55.217Z,96.10
2023-02-13T05:43:22.515Z,96.20
2023-02-13T05:45:49.517Z,96.30
2023-02-13T05:48:16.407Z,96.30
2023-02-13T05:50:43.568Z,96.10
2023-02-13T05:53:10.605Z,96.10
2023-02-13T05:55:38.889Z,96.20
2023-02-13T05:58:05.906Z,95.80
2023-02-13T06:00:32.818Z,95.80
2023-02-13T06:02:59.859Z,95.80
2023-02-13T06:05:26.976Z,95.80
2023-02-13T06:07:53.890Z,96.00
2023-02-13T06:10:20.970Z,95.90
2023-02-13T06:12:47.893Z,95.80
2023-02-13T06:15:14.938Z,95.90
2023-02-13T06:17:41.887Z,96.00
2023-02-13T06:20:09.483Z,95.70
2023-02-13T06:22:36.523Z,95.70
2023-02-13T06:25:03.643Z,95.20
2023-02-13T06:27:30.693Z,95.50
2023-02-13T06:29:57.676Z,95.40
2023-02-13T06:32:24.598Z,95.70
2023-02-13T06:34:51.497Z,95.80
2023-02-13T06:37:18.430Z,95.90
2023-02-13T06:39:45.676Z,95.90
2023-02-13T06:42:12.552Z,95.90
2023-02-13T06:44:39.518Z,96.00
2023-02-13T06:47:06.549Z,96.30
2023-02-13T06:49:33.481Z,96.20
2023-02-13T06:52:00.465Z,96.20
2023-02-13T06:54:44.816Z,95.90
2023-02-13T06:57:14.217Z,96.10
2023-02-13T06:59:41.275Z,96.10
2023-02-13T07:02:13.152Z,96.10
2023-02-13T07:04:40.410Z,96.20
2023-02-13T07:07:07.443Z,96.00
2023-02-13T07:09:34.459Z,95.50
2023-02-13T07:12:05.821Z,95.10
2023-02-13T07:14:32.934Z,95.10
2023-02-13T07:17:00.286Z,95.30
2023-02-13T07:19:27.491Z,95.40
2023-02-13T07:21:56.802Z,95.60
2023-02-13T07:24:23.800Z,95.40
2023-02-13T07:26:50.751Z,95.30
2023-02-13T07:29:17.647Z,95.20
2023-02-13T07:31:44.702Z,95.50
2023-02-13T07:34:11.822Z,95.50
2023-02-13T07:36:38.806Z,95.50
2023-02-13T07:39:05.755Z,95.30
2023-02-13T07:41:32.803Z,95.30
2023-02-13T07:43:59.760Z,95.40
2023-02-13T07:46:26.845Z,95.30
2023-02-13T07:48:54.198Z,95.70
2023-02-13T07:51:25.095Z,95.90
2023-02-13T07:53:57.777Z,95.90
2023-02-13T07:56:24.994Z,95.60
2023-02-13T07:58:52.015Z,95.60
2023-02-13T08:01:20.092Z,95.50
2023-02-13T08:03:51.479Z,95.40
2023-02-13T08:06:20.116Z,95.10
2023-02-13T08:08:47.084Z,95.30
2023-02-13T08:11:52.770Z,95.20
2023-02-13T08:14:21.653Z,95.20
2023-02-13T08:16:49.179Z,94.90
2023-02-13T08:19:16.563Z,94.90
2023-02-13T08:21:43.607Z,94.80
2023-02-13T08:24:11.445Z,95.30
2023-02-13T08:26:39.007Z,94.80
2023-02-13T08:29:06.938Z,94.60
2023-02-13T08:31:34.029Z,94.60
2023-02-13T08:34:01.176Z,94.40
2023-02-13T08:36:28.373Z,94.10
2023-02-13T08:38:55.454Z,93.90
2023-02-13T08:41:23.268Z,93.80
2023-02-13T08:43:51.178Z,93.80
2023-02-13T08:46:18.960Z,93.70
2023-02-13T08:48:46.158Z,93.60
2023-02-13T08:51:14.607Z,93.50
2023-02-13T08:53:42.666Z,93.60
2023-02-13T08:56:11.142Z,93.30
2023-02-13T08:58:38.248Z,93.30
2023-02-13T09:01:09.770Z,93.20
2023-02-13T09:03:37.267Z,93.10
2023-02-13T09:06:04.378Z,93.50
2023-02-13T09:08:31.440Z,93.40
2023-02-13T09:11:01.462Z,93.20
2023-02-13T09:13:34.617Z,93.30
2023-02-13T09:16:02.598Z,93.20
2023-02-13T09:18:29.542Z,93.30
2023-02-13T09:21:05.960Z,93.20
2023-02-13T09:23:38.737Z,93.20
2023-02-13T09:26:08.241Z,93.10
2023-02-13T09:28:36.518Z,92.90
2023-02-13T09:31:16.063Z,92.80
2023-02-13T09:33:44.224Z,92.70
2023-02-13T09:36:20.595Z,92.70
2023-02-13T09:38:51.898Z,92.70
2023-02-13T09:41:32.509Z,92.50
2023-02-13T09:44:05.184Z,92.60
2023-02-13T09:46:38.267Z,92.40
2023-02-13T09:49:20.785Z,92.50
2023-02-13T09:51:55.267Z,92.60
2023-02-13T09:54:22.262Z,92.70
2023-02-13T09:57:05.272Z,92.40
2023-02-13T09:59:44.688Z,92.50
2023-02-13T10:02:30.711Z,92.30
2023-02-13T10:05:17.141Z,92.40
2023-02-13T10:07:49.460Z,92.30
2023-02-13T10:10:48.364Z,92.10
2023-02-13T10:13:34.326Z,91.80
2023-02-13T10:16:19.776Z,91.60
2023-02-13T10:19:14.363Z,91.60
2023-02-13T10:21:55.243Z,91.30
2023-02-13T10:24:38.058Z,91.30
2023-02-13T10:27:28.528Z,91.30
2023-02-13T10:30:13.003Z,90.90
2023-02-13T10:32:50.119Z,90.80
2023-02-13T10:35:23.627Z,90.00
2023-02-13T10:37:55.561Z,89.60
2023-02-13T10:40:33.451Z,89.00
2023-02-13T10:43:15.252Z,88.70
2023-02-13T10:46:04.588Z,88.30
2023-02-13T10:48:40.653Z,87.60
2023-02-13T10:51:39.252Z,86.20
2023-02-13T10:54:40.255Z,86.40
2023-02-13T10:57:34.175Z,85.20
2023-02-13T11:00:31.541Z,84.50
2023-02-13T11:02:59.987Z,85.10
2023-02-13T11:05:46.705Z,83.40
2023-02-13T11:08:25.182Z,84.00
2023-02-13T11:10:52.823Z,82.60
2023-02-13T11:13:25.999Z,81.10
2023-02-13T11:16:10.518Z,80.80
2023-02-13T11:18:41.623Z,80.40
2023-02-13T11:21:20.399Z,79.80
2023-02-13T11:23:52.455Z,78.70
2023-02-13T11:26:34.411Z,78.70
2023-02-13T11:29:06.226Z,78.20
2023-02-13T11:31:35.519Z,78.00
2023-02-13T11:34:29.647Z,75.70
2023-02-13T11:37:20.325Z,78.30
2023-02-13T11:39:51.302Z,76.10
2023-02-13T11:42:33.804Z,77.40
2023-02-13T11:45:02.701Z,75.90
2023-02-13T11:47:42.563Z,73.80
2023-02-13T11:50:32.577Z,74.80
2023-02-13T11:53:07.816Z,72.20
2023-02-13T11:55:40.547Z,70.80
2023-02-13T11:58:16.618Z,73.30
2023-02-13T12:00:44.533Z,71.60
2023-02-13T12:03:26.553Z,71.10
2023-02-13T12:06:10.978Z,72.50
2023-02-13T12:08:40.198Z,73.40
2023-02-13T12:11:30.184Z,72.00
2023-02-13T12:13:58.373Z,72.30
2023-02-13T12:16:39.065Z,71.40
2023-02-13T12:19:12.949Z,70.60
2023-02-13T12:21:48.909Z,70.00
2023-02-13T12:24:49.091Z,72.40
2023-02-13T12:27:42.832Z,72.10
2023-02-13T12:30:42.077Z,71.00
2023-02-13T12:33:38.265Z,71.20
2023-02-13T12:36:08.067Z,68.00
2023-02-13T12:38:49.449Z,70.20
2023-02-13T12:41:29.019Z,66.00
2023-02-13T12:44:01.353Z,66.70
2023-02-13T12:46:44.753Z,68.10
2023-02-13T12:49:20.225Z,68.90
2023-02-13T12:52:14.209Z,69.40
2023-02-13T12:54:48.846Z,65.10
2023-02-13T12:57:30.205Z,64.10
2023-02-13T13:00:09.453Z,64.50
2023-02-13T13:03:07.196Z,64.50
2023-02-13T13:05:40.961Z,64.60
2023-02-13T13:08:22.964Z,64.00
2023-02-13T13:10:52.758Z,62.50
2023-02-13T13:13:51.087Z,61.60
2023-02-13T13:16:30.097Z,62.20
2023-02-13T13:19:10.972Z,63.30
2023-02-13T13:22:08.706Z,60.50
2023-02-13T13:25:02.884Z,62.40
2023-02-13T13:27:44.387Z,61.80
2023-02-13T13:30:36.174Z,63.80
2023-02-13T13:33:24.791Z,62.30
2023-02-13T13:36:27.827Z,64.10
2023-02-13T13:38:59.465Z,63.30
2023-02-13T13:41:36.287Z,65.40
2023-02-13T13:44:40.449Z,63.70
2023-02-13T13:47:16.697Z,62.80
2023-02-13T13:49:53.830Z,61.90
2023-02-13T13:52:34.736Z,60.00
2023-02-13T13:55:04.607Z,60.00
2023-02-13T13:57:34.604Z,64.50
2023-02-13T14:00:07.927Z,63.90
2023-02-13T14:02:49.896Z,62.00
2023-02-13T14:05:25.192Z,63.60
2023-02-13T14:07:58.954Z,64.90
2023-02-13T14:10:25.831Z,64.60
2023-02-13T14:12:55.858Z,64.10
2023-02-13T14:15:42.635Z,64.40
2023-02-13T14:18:12.665Z,65.40
2023-02-13T14:21:03.640Z,65.50
2023-02-13T14:23:50.936Z,63.40
2023-02-13T14:26:17.904Z,63.50
2023-02-13T14:28:50.539Z,63.80
2023-02-13T14:31:22.721Z,64.20
2023-02-13T14:34:23.145Z,65.10
2023-02-13T14:37:17.281Z,64.30
2023-02-13T14:40:10.989Z,62.70
2023-02-13T14:42:39.441Z,63.30
2023-02-13T14:45:17.672Z,63.40
2023-02-13T14:47:53.481Z,63.20
2023-02-13T14:50:25.132Z,63.70
2023-02-13T14:52:53.801Z,63.80
2023-02-13T14:55:40.523Z,64.50
2023-02-13T14:58:25.967Z,64.50
2023-02-13T15:01:24.037Z,63.30
2023-02-13T15:04:21.835Z,65.60
2023-02-13T15:06:50.210Z,65.40
2023-02-13T15:09:39.126Z,65.10
2023-02-13T15:12:29.901Z,64.70
2023-02-13T15:14:57.247Z,64.50
2023-02-13T15:17:28.846Z,64.40
2023-02-13T15:20:02.134Z,65.40
2023-02-13T15:22:33.245Z,65.70
2023-02-13T15:25:00.643Z,67.10
2023-02-13T15:27:30.402Z,66.60
2023-02-13T15:30:26.043Z,70.50
2023-02-13T15:32:58.601Z,70.80
2023-02-13T15:35:32.059Z,70.10
2023-02-13T15:38:00.314Z,71.80
2023-02-13T15:40:33.202Z,70.60
2023-02-13T15:43:01.776Z,72.00
2023-02-13T15:45:30.396Z,71.20
2023-02-13T15:47:58.117Z,72.00
2023-02-13T15:50:37.278Z,70.40
2023-02-13T15:53:10.968Z,69.80
2023-02-13T15:55:38.674Z,70.10
2023-02-13T15:58:06.276Z,71.40
2023-02-13T16:00:41.232Z,73.50
2023-02-13T16:03:15.847Z,74.30
2023-02-13T16:05:45.328Z,75.00
2023-02-13T16:08:31.559Z,75.80
2023-02-13T16:11:20.580Z,76.10
2023-02-13T16:13:59.534Z,77.10
2023-02-13T16:16:28.394Z,78.10
2023-02-13T16:18:55.835Z,78.70
2023-02-13T16:21:29.314Z,79.70
2023-02-13T16:24:04.441Z,79.20
2023-02-13T16:26:31.720Z,79.80
2023-02-13T16:28:58.753Z,79.50
2023-02-13T16:31:26.195Z,81.00
2023-02-13T16:33:53.329Z,81.70
2023-02-13T16:36:29.733Z,82.80
2023-02-13T16:38:56.774Z,82.10
2023-02-13T16:41:26.986Z,82.30
2023-02-13T16:44:04.675Z,82.60
2023-02-13T16:46:40.407Z,83.20
2023-02-13T16:49:10.356Z,83.80
2023-02-13T16:52:08.647Z,84.20
2023-02-13T16:54:57.172Z,84.60
2023-02-13T16:57:30.253Z,84.50
2023-02-13T16:59:59.965Z,84.70
2023-02-13T17:02:38.645Z,84.70
2023-02-13T17:05:08.535Z,85.00
2023-02-13T17:07:41.773Z,85.70
2023-02-13T17:10:33.695Z,84.70
2023-02-13T17:13:03.126Z,85.40
2023-02-13T17:15:32.293Z,85.90
2023-02-13T17:18:00.080Z,85.80
2023-02-13T17:20:33.928Z,86.50
2023-02-13T17:23:04.528Z,86.10
2023-02-13T17:25:37.512Z,86.40
2023-02-13T17:28:26.836Z,86.60
2023-02-13T17:30:58.015Z,86.80
2023-02-13T17:33:26.451Z,87.40
2023-02-13T17:35:53.672Z,86.90
2023-02-13T17:38:21.407Z,87.00
2023-02-13T17:40:48.566Z,87.00
2023-02-13T17:43:17.486Z,87.20
2023-02-13T17:45:45.701Z,87.00
2023-02-13T17:48:12.876Z,87.60
2023-02-13T17:50:40.329Z,87.30
2023-02-13T17:53:19.265Z,86.30
2023-02-13T17:55:47.165Z,87.10
2023-02-13T17:58:14.088Z,87.60
2023-02-13T18:00:41.099Z,87.60
2023-02-13T18:03:08.260Z,87.40
2023-02-13T18:05:35.296Z,87.80
2023-02-13T18:08:02.834Z,87.20
2023-02-13T18:10:32.774Z,87.30
2023-02-13T18:13:04.487Z,87.60
2023-02-13T18:15:43.270Z,87.20
2023-02-13T18:18:13.578Z,86.30
2023-02-13T18:20:40.580Z,86.70
2023-02-13T18:23:09.097Z,87.20
2023-02-13T18:25:36.136Z,86.70
2023-02-13T18:28:03.588Z,87.30
2023-02-13T18:30:30.636Z,87.60
2023-02-13T18:32:59.376Z,87.60
2023-02-13T18:35:27.240Z,86.70
2023-02-13T18:37:54.450Z,86.60
2023-02-13T18:40:21.683Z,87.50
2023-02-13T18:42:51.177Z,87.40
2023-02-13T18:45:18.710Z,87.20
2023-02-13T18:47:45.654Z,87.80
2023-02-13T18:50:15.416Z,88.30
2023-02-13T18:52:42.407Z,88.90
2023-02-13T18:55:09.595Z,88.30
2023-02-13T18:57:36.798Z,87.70
2023-02-13T19:00:05.533Z,87.10
2023-02-13T19:02:33.513Z,88.50
2023-02-13T19:05:01.433Z,88.50
2023-02-13T19:07:28.521Z,88.20
2023-02-13T19:09:56.046Z,89.00
2023-02-13T19:12:23.261Z,88.40
2023-02-13T19:14:50.307Z,88.50
2023-02-13T19:17:17.303Z,89.20
2023-02-13T19:19:48.982Z,89.50
2023-02-13T19:22:15.936Z,88.50
2023-02-13T19:24:42.979Z,89.00
2023-02-13T19:27:10.099Z,89.20
2023-02-13T19:29:37.139Z,89.60
2023-02-13T19:32:04.111Z,89.90
2023-02-13T19:34:31.314Z,89.90
2023-02-13T19:36:58.302Z,89.80
2023-02-13T19:39:25.318Z,90.30
2023-02-13T19:41:52.256Z,90.10
2023-02-13T19:44:19.224Z,89.90
2023-02-13T19:46:46.259Z,90.40
2023-02-13T19:49:13.393Z,90.20
2023-02-13T19:51:42.562Z,90.30
2023-02-13T19:54:11.256Z,90.40
2023-02-13T19:56:39.825Z,90.30
2023-02-13T19:59:09.067Z,89.70
2023-02-13T20:01:36.244Z,90.20
2023-02-13T20:04:03.305Z,90.00
2023-02-13T20:06:36.240Z,90.20
2023-02-13T20:09:07.818Z,90.00
2023-02-13T20:11:34.945Z,90.00
2023-02-13T20:14:02.015Z,90.30
2023-02-13T20:16:33.198Z,90.40
2023-02-13T20:19:07.621Z,90.50
2023-02-13T20:21:35.322Z,90.40
2023-02-13T20:24:05.586Z,90.60
2023-02-13T20:26:32.702Z,90.80
2023-02-13T20:29:00.562Z,90.60
2023-02-13T20:31:29.987Z,90.50
2023-02-13T20:33:58.482Z,90.60
2023-02-13T20:36:28.883Z,90.40
2023-02-13T20:38:59.795Z,90.10
2023-02-13T20:41:29.457Z,90.20
2023-02-13T20:44:01.492Z,90.40
2023-02-13T20:46:34.731Z,90.60
2023-02-13T20:49:02.107Z,90.70
2023-02-13T20:51:29.660Z,90.90
2023-02-13T20:53:56.948Z,90.50
2023-02-13T20:56:25.775Z,90.40
2023-02-13T20:58:55.661Z,90.50
2023-02-13T21:01:35.036Z,90.60
2023-02-13T21:04:02.515Z,90.40
2023-02-13T21:06:36.943Z,90.50
2023-02-13T21:09:05.488Z,90.60
2023-02-13T21:11:34.534Z,90.50
2023-02-13T21:14:02.591Z,90.70
2023-02-13T21:16:33.973Z,90.70
2023-02-13T21:19:05.581Z,90.80
2023-02-13T21:21:35.259Z,90.80
2023-02-13T21:24:08.635Z,90.70
2023-02-13T21:26:36.280Z,90.90
2023-02-13T21:29:04.468Z,90.80
2023-02-13T21:31:37.783Z,90.90
2023-02-13T21:34:07.761Z,90.50
2023-02-13T21:36:36.459Z,90.40
2023-02-13T21:39:04.823Z,90.10
2023-02-13T21:41:31.897Z,90.10
2023-02-13T21:43:58.934Z,90.20
2023-02-13T21:46:28.736Z,90.60
2023-02-13T21:48:58.145Z,90.00
2023-02-13T21:51:27.011Z,90.20
2023-02-13T21:53:55.115Z,90.40
2023-02-13T21:56:25.582Z,90.40
2023-02-13T21:58:53.749Z,90.60
2023-02-13T22:01:26.838Z,90.40
2023-02-13T22:04:00.933Z,90.60
2023-02-13T22:06:30.305Z,90.20
2023-02-13T22:08:59.915Z,90.20
2023-02-13T22:11:27.746Z,90.50
2023-02-13T22:13:56.793Z,90.70
2023-02-13T22:16:24.354Z,90.80
2023-02-13T22:18:51.704Z,90.60
2023-02-13T22:21:22.463Z,90.50
2023-02-13T22:23:52.070Z,90.30
2023-02-13T22:26:24.665Z,90.20
2023-02-13T22:28:52.831Z,90.20
2023-02-13T22:31:22.976Z,90.30
2023-02-13T22:34:02.956Z,90.40
2023-02-13T22:36:31.998Z,90.30
2023-02-13T22:38:58.984Z,89.90
2023-02-13T22:41:27.151Z,89.30
2023-02-13T22:43:54.723Z,89.50
2023-02-13T22:46:30.205Z,89.60
2023-02-13T22:48:57.781Z,90.00
2023-02-13T22:51:28.842Z,89.60
2023-02-13T22:53:57.616Z,89.80
2023-02-13T22:56:26.055Z,90.00
2023-02-13T22:58:53.666Z,90.20
2023-02-13T23:01:22.291Z,90.30
2023-02-13T23:03:49.487Z,90.10
2023-02-13T23:06:20.522Z,90.00
2023-02-13T23:08:52.929Z,90.10
2023-02-13T23:11:43.513Z,90.00
2023-02-13T23:14:10.843Z,90.20
2023-02-13T23:16:58.675Z,90.00
2023-02-13T23:19:27.682Z,89.60
2023-02-13T23:21:54.760Z,90.10
2023-02-13T23:24:21.930Z,89.80
2023-02-13T23:26:48.956Z,90.20
2023-02-13T23:29:17.283Z,90.00
2023-02-13T23:31:44.397Z,90.20
2023-02-13T23:34:11.516Z,90.60
2023-02-13T23:36:38.529Z,90.70
2023-02-13T23:39:05.515Z,90.80
2023-02-13T23:41:32.443Z,90.90
2023-02-13T23:43:59.497Z,90.80
2023-02-13T23:46:26.600Z,90.90
2023-02-13T23:48:53.557Z,90.80
2023-02-13T23:51:23.219Z,91.00
2023-02-13T23:53:50.320Z,91.10
2023-02-13T23:56:17.238Z,91.00
2023-02-13T23:58:44.274Z,90.80
